createdAt,value
2019-01-16T00:02:08.491Z,100469.20
2019-01-16T00:04:55.687Z,100477.34
2019-01-16T00:07:48.553Z,100480.26
2019-01-16T00:10:47.213Z,100478.02
2019-01-16T00:13:48.788Z,100474.18
2019-01-16T00:16:36.611Z,100477.82
2019-01-16T00:19:26.344Z,100476.77
2019-01-16T00:22:22.171Z,100479.17
2019-01-16T00:25:14.956Z,100477.25
2019-01-16T00:28:11.031Z,100479.34
2019-01-16T00:47:49.031Z,100476.53
2019-01-16T00:50:37.185Z,100471.84
2019-01-16T00:53:27.285Z,100475.81
2019-01-16T00:56:07.871Z,100474.90
2019-01-16T00:59:06.895Z,100483.84
2019-01-16T01:01:56.506Z,100482.78
2019-01-16T01:04:51.898Z,100482.38
2019-01-16T01:07:53.549Z,100488.53
2019-01-16T01:10:38.413Z,100488.88
2019-01-16T01:13:23.905Z,100492.34
2019-01-16T01:16:03.593Z,100483.95
2019-01-16T01:18:52.002Z,100482.89
2019-01-16T01:21:38.034Z,100481.89
2019-01-16T01:24:26.485Z,100480.26
2019-01-16T01:27:19.355Z,100481.20
2019-01-16T01:29:59.712Z,100478.80
2019-01-16T01:33:07.729Z,100484.18
2019-01-16T01:35:59.622Z,100479.91
2019-01-16T01:39:04.275Z,100473.30
2019-01-16T01:42:11.982Z,100473.30
2019-01-16T01:44:57.387Z,100475.93
2019-01-16T01:47:37.665Z,100478.80
2019-01-16T01:50:27.143Z,100483.12
2019-01-16T01:53:31.783Z,100486.50
2019-01-16T01:56:21.263Z,100481.52
2019-01-16T01:59:11.927Z,100481.75
2019-01-16T02:02:01.711Z,100482.45
2019-01-16T02:04:50.402Z,100482.86
2019-01-16T02:07:39.125Z,100484.15
2019-01-16T02:10:44.630Z,100481.05
2019-01-16T02:13:32.532Z,100485.64
2019-01-16T02:16:14.490Z,100474.67
2019-01-16T02:19:19.407Z,100477.27
2019-01-16T02:22:11.657Z,100470.75
2019-01-16T02:25:10.658Z,100460.27
2019-01-16T02:27:59.458Z,100463.73
2019-01-16T02:30:58.264Z,100459.27
2019-01-16T02:33:51.046Z,100459.30
2019-01-16T02:36:39.487Z,100455.28
2019-01-16T02:39:14.835Z,100457.72
2019-01-16T02:42:03.472Z,100456.12
2019-01-16T02:45:08.202Z,100451.42
2019-01-16T02:48:09.889Z,100459.46
2019-01-16T02:50:57.325Z,100454.23
2019-01-16T02:53:45.778Z,100457.52
2019-01-16T02:56:28.001Z,100454.37
2019-01-16T02:59:23.546Z,100453.59
2019-01-16T03:02:01.692Z,100456.05
2019-01-16T03:05:09.821Z,100444.00
2019-01-16T03:08:02.269Z,100442.66
2019-01-16T03:10:52.068Z,100450.33
2019-01-16T03:13:42.783Z,100443.73
2019-01-16T03:16:38.406Z,100442.33
2019-01-16T03:19:28.132Z,100431.32
2019-01-16T03:22:24.243Z,100430.16
2019-01-16T03:25:10.754Z,100424.72
2019-01-16T03:28:12.717Z,100421.19
2019-01-16T03:30:58.507Z,100416.00
2019-01-16T03:33:48.293Z,100416.80
2019-01-16T03:36:38.127Z,100421.15
2019-01-16T03:39:29.987Z,100418.55
2019-01-16T03:42:22.479Z,100415.55
2019-01-16T03:45:03.101Z,100406.63
2019-01-16T03:47:59.667Z,100408.88
2019-01-16T03:50:55.524Z,100403.25
2019-01-16T03:53:43.935Z,100398.41
2019-01-16T03:56:45.715Z,100398.95
2019-01-16T03:59:28.347Z,100390.80
2019-01-16T04:02:22.962Z,100398.35
2019-01-16T04:05:12.689Z,100398.84
2019-01-16T04:08:01.077Z,100392.97
2019-01-16T04:11:09.370Z,100391.62
2019-01-16T04:14:05.215Z,100389.85
2019-01-16T04:16:54.947Z,100384.09
2019-01-16T04:19:49.672Z,100384.78
2019-01-16T04:22:42.181Z,100385.09
2019-01-16T04:25:50.128Z,100384.09
2019-01-16T04:28:39.939Z,100378.38
2019-01-16T04:31:28.393Z,100372.77
2019-01-16T04:34:16.557Z,100369.47
2019-01-16T04:37:12.823Z,100365.44
2019-01-16T04:40:20.868Z,100366.20
2019-01-16T04:43:03.587Z,100362.98
2019-01-16T04:45:51.939Z,100353.50
2019-01-16T04:48:40.355Z,100348.87
2019-01-16T04:51:21.918Z,100347.61
2019-01-16T04:54:27.329Z,100344.28
2019-01-16T04:57:15.518Z,100340.13
2019-01-16T05:00:03.538Z,100334.42
2019-01-16T05:03:11.375Z,100335.07
2019-01-16T05:06:09.519Z,100331.05
2019-01-16T05:09:08.013Z,100322.29
2019-01-16T05:11:57.799Z,100324.42
2019-01-16T05:14:35.491Z,100321.36
2019-01-16T05:17:40.500Z,100325.72
2019-01-16T05:20:28.679Z,100321.75
2019-01-16T05:23:30.895Z,100317.82
2019-01-16T05:26:15.794Z,100314.58
2019-01-16T05:29:08.644Z,100314.86
2019-01-16T05:31:52.640Z,100305.23
2019-01-16T05:34:44.460Z,100307.47
2019-01-16T05:37:46.035Z,100304.50
2019-01-16T05:40:38.543Z,100294.93
2019-01-16T05:43:43.542Z,100294.80
2019-01-16T05:46:33.610Z,100294.50
2019-01-16T05:49:29.424Z,100295.27
2019-01-16T05:52:17.966Z,100292.97
2019-01-16T05:55:07.703Z,100283.22
2019-01-16T05:57:55.919Z,100286.12
2019-01-16T06:01:00.615Z,100286.34
2019-01-16T06:03:59.392Z,100283.37
2019-01-16T06:06:58.215Z,100283.77
2019-01-16T06:09:47.326Z,100274.66
2019-01-16T06:12:47.818Z,100275.64
2019-01-16T06:15:40.620Z,100279.51
2019-01-16T06:18:28.822Z,100276.87
2019-01-16T06:21:33.925Z,100272.11
2019-01-16T06:24:41.991Z,100273.86
2019-01-16T06:27:28.591Z,100267.27
2019-01-16T06:30:19.581Z,100273.19
2019-01-16T06:36:28.318Z,100273.98
2019-01-16T06:39:30.158Z,100272.97
2019-01-16T06:42:15.691Z,100273.80
2019-01-16T06:45:17.662Z,100262.76
2019-01-16T06:48:21.772Z,100262.12
2019-01-16T06:51:13.822Z,100267.20
2019-01-16T06:54:03.953Z,100263.89
2019-01-16T06:56:53.711Z,100265.25
2019-01-16T06:59:35.502Z,100265.52
2019-01-16T07:02:23.825Z,100269.45
2019-01-16T07:05:12.523Z,100264.10
2019-01-16T07:08:02.346Z,100265.39
2019-01-16T07:10:51.097Z,100266.84
2019-01-16T07:13:46.777Z,100269.14
2019-01-16T07:16:36.794Z,100268.98
2019-01-16T07:19:25.142Z,100266.41
2019-01-16T07:22:08.777Z,100272.97
2019-01-16T07:24:57.510Z,100271.03
2019-01-16T07:27:39.723Z,100269.12
2019-01-16T07:30:34.803Z,100271.25
2019-01-16T07:33:23.493Z,100264.93
2019-01-16T07:36:26.484Z,100270.14
2019-01-16T07:39:28.423Z,100268.26
2019-01-16T07:42:24.248Z,100264.85
2019-01-16T07:45:13.985Z,100260.86
2019-01-16T07:48:09.783Z,100268.17
2019-01-16T07:51:02.276Z,100266.14
2019-01-16T07:53:40.342Z,100266.08
2019-01-16T07:56:34.358Z,100275.29
2019-01-16T07:59:25.512Z,100272.98
2019-01-16T08:02:14.675Z,100265.19
2019-01-16T08:05:03.423Z,100272.79
2019-01-16T08:07:53.145Z,100276.44
2019-01-16T08:11:01.048Z,100270.05
2019-01-16T08:14:05.414Z,100269.45
2019-01-16T08:16:58.147Z,100261.59
2019-01-16T08:19:50.891Z,100267.23
2019-01-16T08:22:40.677Z,100267.48
2019-01-16T08:25:36.236Z,100267.78
2019-01-16T08:28:38.197Z,100270.20
2019-01-16T08:31:27.677Z,100261.40
2019-01-16T08:34:17.248Z,100266.34
2019-01-16T08:37:01.297Z,100264.91
2019-01-16T08:39:53.854Z,100268.71
2019-01-16T08:42:42.113Z,100262.45
2019-01-16T08:45:30.484Z,100262.69
2019-01-16T08:48:32.203Z,100261.80
2019-01-16T08:51:33.908Z,100264.84
2019-01-16T08:54:22.619Z,100260.77
2019-01-16T08:57:05.185Z,100260.05
2019-01-16T09:00:01.016Z,100257.63
2019-01-16T09:03:03.052Z,100254.33
2019-01-16T09:05:56.909Z,100250.00
2019-01-16T09:08:45.477Z,100246.92
2019-01-16T09:11:38.323Z,100247.39
2019-01-16T09:14:26.662Z,100256.64
2019-01-16T09:17:34.995Z,100253.11
2019-01-16T09:20:39.861Z,100250.59
2019-01-16T09:23:25.171Z,100247.81
2019-01-16T09:26:07.331Z,100249.11
2019-01-16T09:29:02.922Z,100249.11
2019-01-16T09:31:42.890Z,100244.61
2019-01-16T09:34:31.608Z,100234.56
2019-01-16T09:37:20.652Z,100230.69
2019-01-16T09:40:19.810Z,100233.41
2019-01-16T09:43:17.544Z,100229.91
2019-01-16T09:46:16.434Z,100228.94
2019-01-16T09:49:04.932Z,100228.05
2019-01-16T09:51:53.443Z,100227.09
2019-01-16T09:55:00.027Z,100232.55
2019-01-16T09:58:05.016Z,100225.23
2019-01-16T10:01:06.507Z,100223.34
2019-01-16T10:03:56.267Z,100219.34
2019-01-16T10:06:44.270Z,100216.45
2019-01-16T10:09:37.931Z,100215.42
2019-01-16T10:12:27.660Z,100202.99
2019-01-16T10:15:26.518Z,100203.89
2019-01-16T10:18:25.486Z,100205.77
2019-01-16T10:21:21.082Z,100200.67
2019-01-16T10:24:03.009Z,100209.35
2019-01-16T10:26:51.269Z,100205.31
2019-01-16T10:29:40.617Z,100204.73
2019-01-16T10:32:28.967Z,100184.59
2019-01-16T10:35:17.126Z,100193.95
2019-01-16T10:38:10.527Z,100190.59
2019-01-16T10:41:06.398Z,100189.37
2019-01-16T10:44:00.666Z,100179.37
2019-01-16T10:46:49.023Z,100168.35
2019-01-16T10:49:56.967Z,100155.63
2019-01-16T10:52:43.659Z,100156.03
2019-01-16T10:55:30.126Z,100153.56
2019-01-16T10:58:09.962Z,100149.19
2019-01-16T11:01:00.321Z,100151.77
2019-01-16T11:03:48.711Z,100126.47
2019-01-16T11:06:49.101Z,100146.21
2019-01-16T11:09:50.974Z,100140.58
2019-01-16T11:12:38.342Z,100133.95
2019-01-16T11:15:41.538Z,100122.37
2019-01-16T11:18:29.928Z,100118.97
2019-01-16T11:21:19.646Z,100113.05
2019-01-16T11:24:04.036Z,100099.28
2019-01-16T11:26:52.283Z,100111.16
2019-01-16T11:29:57.017Z,100101.45
2019-01-16T11:32:46.828Z,100104.60
2019-01-16T11:35:42.483Z,100102.34
2019-01-16T11:38:38.088Z,100102.98
2019-01-16T11:41:24.254Z,100097.08
2019-01-16T11:44:26.259Z,100093.71
2019-01-16T11:47:14.851Z,100094.25
2019-01-16T11:50:10.964Z,100092.10
2019-01-16T11:53:00.198Z,100086.88
2019-01-16T11:56:05.194Z,100089.84
2019-01-16T11:58:44.480Z,100084.17
2019-01-16T12:01:34.299Z,100078.55
2019-01-16T12:04:36.631Z,100072.42
2019-01-16T12:07:24.064Z,100071.64
2019-01-16T12:10:17.081Z,100069.62
2019-01-16T12:13:00.874Z,100065.17
2019-01-16T12:16:06.519Z,100068.89
2019-01-16T12:18:54.730Z,100064.20
2019-01-16T12:21:42.946Z,100061.30
2019-01-16T12:24:38.555Z,100053.80
2019-01-16T12:27:27.041Z,100053.63
2019-01-16T12:30:12.714Z,100051.88
2019-01-16T12:33:05.458Z,100047.03
2019-01-16T12:35:53.740Z,100045.03
2019-01-16T12:38:32.305Z,100047.42
2019-01-16T12:41:17.224Z,100038.63
2019-01-16T12:44:05.674Z,100037.84
2019-01-16T12:47:04.986Z,100033.87
2019-01-16T12:49:47.776Z,100031.69
2019-01-16T12:52:36.255Z,100024.14
2019-01-16T12:55:39.284Z,100030.81
2019-01-16T12:58:35.315Z,100026.30
2019-01-16T13:01:37.395Z,100018.97
2019-01-16T13:04:32.404Z,100017.82
2019-01-16T13:07:14.907Z,100015.38
2019-01-16T13:10:10.574Z,100001.70
2019-01-16T13:13:04.666Z,99996.61
2019-01-16T13:15:57.404Z,99987.13
2019-01-16T13:18:45.558Z,99989.88
2019-01-16T13:21:39.822Z,99992.28
2019-01-16T13:24:34.602Z,99986.55
2019-01-16T13:27:24.656Z,99989.54
2019-01-16T13:30:17.324Z,99989.55
2019-01-16T13:33:09.870Z,99986.08
2019-01-16T13:36:17.537Z,99975.50
2019-01-16T13:39:07.339Z,99981.55
2019-01-16T13:42:06.269Z,99979.69
2019-01-16T13:44:54.560Z,99965.05
2019-01-16T13:47:47.382Z,99970.45
2019-01-16T13:50:35.879Z,99968.56
2019-01-16T13:53:24.885Z,99975.09
2019-01-16T13:56:33.520Z,99973.65
2019-01-16T13:59:18.256Z,99968.48
2019-01-16T14:02:05.535Z,99968.17
2019-01-16T14:05:01.391Z,99960.34
2019-01-16T14:07:49.585Z,99960.27
2019-01-16T14:10:37.989Z,99946.18
2019-01-16T14:13:30.784Z,99953.18
2019-01-16T14:16:38.455Z,99946.01
2019-01-16T14:19:33.786Z,99949.73
2019-01-16T14:22:32.009Z,99948.34
2019-01-16T14:25:17.174Z,99947.54
2019-01-16T14:28:04.882Z,99939.39
2019-01-16T14:31:06.446Z,99931.66
2019-01-16T14:33:59.023Z,99930.88
2019-01-16T14:37:06.873Z,99931.09
2019-01-16T14:39:49.133Z,99928.86
2019-01-16T14:42:41.742Z,99919.08
2019-01-16T14:45:30.093Z,99920.20
2019-01-16T14:48:22.744Z,99917.37
2019-01-16T14:51:00.062Z,99927.30
2019-01-16T14:54:04.932Z,99929.23
2019-01-16T14:56:54.721Z,99921.68
2019-01-16T14:59:59.612Z,99916.81
2019-01-16T15:02:48.072Z,99919.32
2019-01-16T15:05:36.483Z,99919.95
2019-01-16T15:08:20.313Z,99918.10
2019-01-16T15:11:10.158Z,99918.54
2019-01-16T15:14:02.939Z,99926.17
2019-01-16T15:16:51.383Z,99922.45
2019-01-16T15:19:39.588Z,99917.36
2019-01-16T15:22:32.394Z,99914.39
2019-01-16T15:25:11.886Z,99914.50
2019-01-16T15:28:07.386Z,99908.09
2019-01-16T15:30:55.920Z,99897.11
2019-01-16T15:33:48.457Z,99897.39
2019-01-16T15:36:44.324Z,99882.02
2019-01-16T15:39:32.895Z,99880.98
2019-01-16T15:42:38.210Z,99888.06
2019-01-16T15:45:28.060Z,99894.08
2019-01-16T15:48:18.121Z,99892.86
2019-01-16T15:51:06.306Z,99884.81
2019-01-16T15:53:58.914Z,99877.33
2019-01-16T15:57:00.587Z,99872.83
2019-01-16T15:59:49.031Z,99871.14
2019-01-16T16:02:37.150Z,99866.42
2019-01-16T16:05:26.142Z,99858.48
2019-01-16T16:08:24.026Z,99852.61
2019-01-16T16:11:12.469Z,99861.38
2019-01-16T16:13:58.384Z,99858.30
2019-01-16T16:16:41.419Z,99857.48
2019-01-16T16:19:40.150Z,99854.59
2019-01-16T16:22:32.962Z,99851.94
2019-01-16T16:25:21.119Z,99848.15
2019-01-16T16:28:09.227Z,99853.94
2019-01-16T16:31:01.874Z,99840.28
2019-01-16T16:33:44.405Z,99829.41
2019-01-16T16:36:32.822Z,99841.59
2019-01-16T16:39:28.532Z,99825.00
2019-01-16T16:42:14.172Z,99816.64
2019-01-16T16:45:09.707Z,99822.54
2019-01-16T16:47:57.869Z,99827.51
2019-01-16T16:50:53.691Z,99836.30
2019-01-16T16:53:46.238Z,99834.23
2019-01-16T16:56:36.337Z,99832.38
2019-01-16T16:59:24.781Z,99825.38
2019-01-16T17:02:25.366Z,99817.77
2019-01-16T17:05:24.260Z,99807.73
2019-01-16T17:08:07.134Z,99803.83
2019-01-16T17:10:56.832Z,99799.39
2019-01-16T17:13:48.883Z,99790.63
2019-01-16T17:16:41.099Z,99797.64
2019-01-16T17:19:39.402Z,99795.00
2019-01-16T17:22:38.347Z,99811.81
2019-01-16T17:25:47.146Z,99811.08
2019-01-16T17:28:35.355Z,99802.74
2019-01-16T17:31:40.629Z,99779.44
2019-01-16T17:34:41.675Z,99769.67
2019-01-16T17:37:30.301Z,99781.00
2019-01-16T17:40:09.053Z,99779.39
2019-01-16T17:43:01.876Z,99766.72
2019-01-16T17:45:54.854Z,99762.20
2019-01-16T17:48:44.578Z,99746.14
2019-01-16T17:51:32.732Z,99737.26
2019-01-16T17:54:17.912Z,99729.68
2019-01-16T17:57:08.083Z,99721.28
2019-01-16T18:00:06.923Z,99727.11
2019-01-16T18:03:08.919Z,99743.45
2019-01-16T18:06:01.745Z,99739.20
2019-01-16T18:08:43.411Z,99738.05
2019-01-16T18:11:37.905Z,99717.65
2019-01-16T18:14:26.053Z,99724.16
2019-01-16T18:17:21.604Z,99731.16
2019-01-16T18:20:06.241Z,99734.82
2019-01-16T18:22:50.640Z,99720.22
2019-01-16T18:25:29.587Z,99704.73
2019-01-16T18:28:17.878Z,99711.70
2019-01-16T18:31:16.886Z,99707.75
2019-01-16T18:34:05.265Z,99705.25
2019-01-16T18:36:43.377Z,99687.58
2019-01-16T18:39:33.095Z,99695.86
2019-01-16T18:42:21.652Z,99690.36
2019-01-16T18:44:59.003Z,99684.05
2019-01-16T18:47:51.943Z,99683.59
2019-01-16T18:50:44.550Z,99684.95
2019-01-16T18:53:33.617Z,99694.91
2019-01-16T18:56:27.772Z,99686.60
2019-01-16T18:59:27.160Z,99688.84
2019-01-16T19:02:15.605Z,99692.41
2019-01-16T19:05:03.745Z,99688.02
2019-01-16T19:07:53.280Z,99681.36
2019-01-16T19:10:42.195Z,99675.83
2019-01-16T19:13:31.180Z,99676.22
2019-01-16T19:16:32.855Z,99684.69
2019-01-16T19:19:22.588Z,99687.13
2019-01-16T19:22:04.648Z,99688.67
2019-01-16T19:24:57.783Z,99677.11
2019-01-16T19:27:53.591Z,99671.84
2019-01-16T19:30:49.412Z,99669.57
2019-01-16T19:33:29.823Z,99679.35
2019-01-16T19:36:35.119Z,99660.91
2019-01-16T19:39:33.829Z,99657.39
2019-01-16T19:42:23.935Z,99653.44
2019-01-16T19:45:25.595Z,99648.13
2019-01-16T19:48:15.609Z,99651.03
2019-01-16T19:51:06.264Z,99646.91
2019-01-16T19:53:56.488Z,99638.37
2019-01-16T19:56:40.497Z,99635.15
2019-01-16T19:59:28.505Z,99631.10
2019-01-16T20:02:18.152Z,99631.95
2019-01-16T20:05:09.635Z,99625.06
2019-01-16T20:07:59.688Z,99625.95
2019-01-16T20:10:57.631Z,99621.07
2019-01-16T20:13:40.013Z,99622.81
2019-01-16T20:16:32.871Z,99616.45
2019-01-16T20:19:21.002Z,99608.63
2019-01-16T20:22:25.745Z,99602.75
2019-01-16T20:25:07.870Z,99598.64
2019-01-16T20:27:58.237Z,99593.47
2019-01-16T20:30:40.146Z,99593.33
2019-01-16T20:33:32.999Z,99588.90
2019-01-16T20:36:18.478Z,99576.44
2019-01-16T20:39:08.557Z,99563.84
2019-01-16T20:41:58.699Z,99561.91
2019-01-16T20:44:54.874Z,99550.34
2019-01-16T20:47:44.661Z,99539.45
2019-01-16T20:50:32.198Z,99542.78
2019-01-16T20:53:31.221Z,99526.41
2019-01-16T20:56:36.139Z,99535.39
2019-01-16T20:59:34.838Z,99536.63
2019-01-16T21:02:27.887Z,99526.53
2019-01-16T21:05:20.776Z,99527.42
2019-01-16T21:08:10.650Z,99522.25
2019-01-16T21:11:06.679Z,99520.71
2019-01-16T21:14:05.342Z,99514.16
2019-01-16T21:16:57.976Z,99515.75
2019-01-16T21:19:46.226Z,99512.36
2019-01-16T21:22:35.837Z,99506.77
2019-01-16T21:25:26.834Z,99507.09
2019-01-16T21:28:31.748Z,99498.53
2019-01-16T21:31:30.240Z,99488.19
2019-01-16T21:34:19.439Z,99472.45
2019-01-16T21:37:12.629Z,99469.48
2019-01-16T21:40:01.357Z,99456.28
2019-01-16T21:42:51.165Z,99454.31
2019-01-16T21:45:53.148Z,99462.66
2019-01-16T21:48:41.890Z,99459.55
2019-01-16T21:51:30.347Z,99450.48
2019-01-16T21:54:38.183Z,99440.98
2019-01-16T21:57:43.204Z,99433.28
2019-01-16T22:00:33.682Z,99442.05
2019-01-16T22:03:41.712Z,99445.33
2019-01-16T22:06:40.664Z,99435.36
2019-01-16T22:09:28.825Z,99420.42
2019-01-16T22:12:17.223Z,99407.83
2019-01-16T22:15:19.233Z,99402.55
2019-01-16T22:18:12.064Z,99413.60
2019-01-16T22:20:54.995Z,99419.05
2019-01-16T22:23:44.748Z,99416.65
2019-01-16T22:26:37.685Z,99415.55
2019-01-16T22:29:27.427Z,99418.32
2019-01-16T22:32:15.813Z,99413.30
2019-01-16T22:35:11.940Z,99412.87
2019-01-16T22:38:00.577Z,99412.87
2019-01-16T22:40:53.786Z,99410.45
2019-01-16T22:43:49.707Z,99403.56
2019-01-16T22:46:42.533Z,99410.45
2019-01-16T22:49:30.925Z,99399.70
2019-01-16T22:52:32.346Z,99405.47
2019-01-16T22:55:24.858Z,99402.20
2019-01-16T22:58:21.922Z,99404.11
2019-01-16T23:01:19.672Z,99397.48
2019-01-16T23:04:08.102Z,99389.89
2019-01-16T23:07:00.913Z,99376.56
2019-01-16T23:10:05.824Z,99378.47
2019-01-16T23:13:04.507Z,99374.54
2019-01-16T23:16:03.860Z,99367.48
2019-01-16T23:19:07.084Z,99357.90
2019-01-16T23:22:09.002Z,99352.57
2019-01-16T23:24:57.467Z,99363.48
2019-01-16T23:28:02.510Z,99364.17
2019-01-16T23:30:58.421Z,99362.34
2019-01-16T23:34:00.288Z,99342.48
2019-01-16T23:36:48.450Z,99330.44
2019-01-16T23:39:44.256Z,99324.76
2019-01-16T23:42:39.893Z,99328.77
2019-01-16T23:45:28.533Z,99332.86
2019-01-16T23:48:27.491Z,99329.84
2019-01-16T23:51:13.827Z,99334.76
2019-01-16T23:54:21.557Z,99326.66
2019-01-16T23:57:17.293Z,99314.78
